To NAV CANADA Home Page Login to a new session Search on AWWS site Disclaimer Vers la page française équivalente Tips FAQ What's new on the site To the Forecasts and Observations / NOTAM section To "File a Flight Plan" website Publications and other links Update of the User's profile FIC Telephone Numbers My Weather Data Folder Route Weather Data Regional Weather Data Local Weather Data To the Forecasts and Observations / NOTAM section
Request Generated 07/10/2020 at 13:13:58 UTC . Weather information available at that time is displayed.

METAR/TAF

TORONTO/BILLY BISHOP TORONTO CITY AIRPORT/ON    (show WxCam)

METAR CYTZ 101300Z AUTO 13005KT 9SM CLR 27/22 A2986 RMK SLP110 DENSITY ALT 1700FT=
METAR CYTZ 101200Z AUTO 06006KT 9SM FEW150 25/23 A2986 RMK SLP111 DENSITY ALT 1500FT=
METAR CYTZ 101100Z AUTO 08006KT 9SM BKN150 24/22 A2986 RMK SLP111 DENSITY ALT 1300FT=

TAF CYTZ 100738Z 1008/1108 VRB03KT P6SM BKN150 TEMPO 1008/1011 2SM BR
FM101200 14008KT P6SM FEW060 FEW240
FM101500 10010KT P6SM BKN060
FM110200 06010KT P6SM -SHRA BKN030
RMK FCST BASED ON AUTO OBS. NXT FCST BY 101400Z=
Your time UTC time
Weather data provided by Environment Canada and NAV CANADA